Time;durP1;ratioP1;P1;durP2;ratioP2;P2;SDS_P1;SDS_P2;PMS_P1;PMS_P2;Temp;Humidity;BMP_temperature;BMP_pressure;BME280_temperature;BME280_humidity;BME280_pressure;Samples;Min_cycle;Max_cycle;Signal;HPM_P1;HPM_P2
2022/06/29 00:00:43;;;;;;;16.80;6.57;;;;;;;15.74;77.83;101427.00;5071221;28;20025;-79
2022/06/29 00:03:09;;;;;;;14.27;5.78;;;;;;;15.73;78.80;101431.53;5067802;28;20503;-79
2022/06/29 00:05:34;;;;;;;15.43;6.10;;;;;;;15.71;79.70;101430.81;5067697;28;20029;-79
2022/06/29 00:07:59;;;;;;;14.85;6.00;;;;;;;15.68;78.85;101424.78;5066519;28;20024;-79
2022/06/29 00:10:25;;;;;;;14.23;5.60;;;;;;;15.63;79.50;101430.59;5067527;28;20049;-78
2022/06/29 00:12:52;;;;;;;14.77;5.80;;;;;;;15.62;79.05;101419.88;5070114;28;20012;-78
2022/06/29 00:15:18;;;;;;;15.70;6.18;;;;;;;15.59;79.47;101425.56;5077969;28;20337;-78
2022/06/29 00:17:44;;;;;;;17.35;6.20;;;;;;;15.56;79.35;101418.56;5070779;28;20112;-78
2022/06/29 00:20:10;;;;;;;15.98;6.75;;;;;;;15.52;79.34;101414.41;5070802;28;20544;-78
2022/06/29 00:22:36;;;;;;;16.35;6.15;;;;;;;15.51;79.91;101412.69;5070662;28;20099;-78
2022/06/29 00:25:02;;;;;;;14.20;5.97;;;;;;;15.46;80.63;101413.09;5066920;28;20027;-78
2022/06/29 00:27:29;;;;;;;14.43;5.88;;;;;;;15.44;79.82;101411.50;5069474;28;20039;-78
2022/06/29 00:29:54;;;;;;;14.70;6.35;;;;;;;15.41;78.60;101406.34;5069483;28;20042;-78
2022/06/29 00:32:19;;;;;;;16.20;7.15;;;;;;;15.40;80.54;101415.44;5067860;28;20107;-78
2022/06/29 00:34:44;;;;;;;16.42;6.43;;;;;;;15.36;79.64;101406.75;5068162;28;20082;-78
2022/06/29 00:37:10;;;;;;;15.93;6.20;;;;;;;15.31;80.64;101409.81;5078614;28;20024;-78
2022/06/29 00:39:35;;;;;;;14.05;5.78;;;;;;;15.28;80.06;101407.38;5066363;28;20103;-78
2022/06/29 00:42:01;;;;;;;15.98;6.53;;;;;;;15.21;80.68;101408.88;5064042;28;20032;-78
2022/06/29 00:44:27;;;;;;;15.23;6.28;;;;;;;15.19;79.95;101405.44;5067816;28;20031;-78
2022/06/29 00:47:01;;;;;;;13.80;6.07;;;;;;;15.17;79.48;101402.03;5069669;28;20029;-78
2022/06/29 00:49:29;;;;;;;14.88;6.45;;;;;;;15.14;80.86;101404.97;5068764;28;20123;-78
2022/06/29 00:52:12;;;;;;;15.80;6.55;;;;;;;15.11;80.73;101399.81;5089856;28;20494;-78
2022/06/29 00:54:43;;;;;;;17.88;7.18;;;;;;;15.03;81.27;101387.75;5066717;28;20016;-78
2022/06/29 00:57:14;;;;;;;18.58;6.57;;;;;;;15.00;81.34;101388.03;5069026;28;20093;-78
2022/06/29 00:59:48;;;;;;;13.98;6.70;;;;;;;14.97;81.23;101395.56;5066648;28;20581;-78
2022/06/29 01:02:16;;;;;;;15.38;6.63;;;;;;;14.93;81.67;101386.81;5066139;28;20093;-78
2022/06/29 01:04:43;;;;;;;18.13;7.63;;;;;;;14.92;81.52;101386.94;5067885;28;20028;-78
2022/06/29 01:07:11;;;;;;;16.30;7.07;;;;;;;14.83;81.84;101375.91;5069865;28;20107;-78
2022/06/29 01:09:38;;;;;;;17.60;7.03;;;;;;;14.82;81.47;101382.31;5066405;28;20478;-78
2022/06/29 01:12:03;;;;;;;18.40;6.90;;;;;;;14.79;81.72;101389.84;5073871;28;20020;-78
2022/06/29 01:14:29;;;;;;;17.70;6.88;;;;;;;14.76;81.79;101384.66;5076447;28;20028;-78
2022/06/29 01:16:55;;;;;;;16.50;7.40;;;;;;;14.73;81.53;101382.19;5073859;28;20082;-78
2022/06/29 01:19:21;;;;;;;18.75;7.05;;;;;;;14.70;81.33;101385.16;5077315;28;20106;-78
2022/06/29 01:21:50;;;;;;;17.13;7.50;;;;;;;14.68;81.91;101388.00;5075940;28;20113;-78
2022/06/29 01:24:15;;;;;;;16.52;7.18;;;;;;;14.67;82.06;101383.56;5066801;28;20039;-78
2022/06/29 01:26:41;;;;;;;18.10;7.72;;;;;;;14.64;82.48;101375.69;5064489;28;20059;-78
2022/06/29 01:29:06;;;;;;;19.35;7.78;;;;;;;14.63;82.46;101385.66;5065611;28;20028;-78
2022/06/29 01:31:31;;;;;;;14.60;6.32;;;;;;;14.62;83.43;101372.28;5067366;28;20105;-78
2022/06/29 01:34:00;;;;;;;18.65;7.30;;;;;;;14.61;83.04;101376.84;5068687;28;20067;-78
2022/06/29 01:36:25;;;;;;;19.98;7.82;;;;;;;14.59;82.83;101370.63;5072432;28;20020;-78
2022/06/29 01:38:50;;;;;;;15.38;6.75;;;;;;;14.56;82.57;101381.72;5064120;28;20107;-78
2022/06/29 01:41:16;;;;;;;16.10;6.78;;;;;;;14.55;82.13;101377.28;5065662;28;20384;-78
2022/06/29 01:43:41;;;;;;;20.02;8.02;;;;;;;14.50;82.66;101377.66;5072496;28;20039;-78
2022/06/29 01:46:07;;;;;;;18.27;8.48;;;;;;;14.49;82.46;101367.84;5071207;28;20032;-78
2022/06/29 01:48:32;;;;;;;19.45;7.28;;;;;;;14.49;82.95;101369.69;5074086;28;20365;-78
2022/06/29 01:50:58;;;;;;;18.95;8.00;;;;;;;14.44;83.48;101363.78;5072775;28;20394;-78
2022/06/29 01:53:23;;;;;;;15.85;6.93;;;;;;;14.43;83.28;101359.38;5087324;28;20040;-78
2022/06/29 01:55:49;;;;;;;17.63;7.13;;;;;;;14.41;82.89;101361.34;5068949;28;20024;-78
2022/06/29 01:58:15;;;;;;;17.90;7.88;;;;;;;14.38;83.34;101369.69;5081257;28;20028;-78
2022/06/29 02:00:41;;;;;;;17.00;7.40;;;;;;;14.34;83.37;101367.22;5069804;28;20365;-78
2022/06/29 02:03:06;;;;;;;19.23;7.53;;;;;;;14.34;83.36;101359.13;5067251;28;20085;-78
2022/06/29 02:05:32;;;;;;;24.20;8.35;;;;;;;14.31;82.96;101356.66;5067793;28;20519;-78
2022/06/29 02:07:57;;;;;;;18.58;8.38;;;;;;;14.30;84.29;101354.94;5072791;28;20368;-78
2022/06/29 02:10:23;;;;;;;16.83;7.65;;;;;;;14.28;83.99;101354.22;5067035;28;20048;-78
2022/06/29 02:12:48;;;;;;;18.95;8.32;;;;;;;14.25;83.59;101354.47;5087708;28;20031;-78
2022/06/29 02:15:13;;;;;;;16.73;8.07;;;;;;;14.25;83.38;101354.47;5083352;28;20547;-79
2022/06/29 02:17:39;;;;;;;18.63;8.85;;;;;;;14.24;84.65;101355.44;5068814;28;20950;-79
2022/06/29 02:20:05;;;;;;;21.55;8.07;;;;;;;14.22;84.26;101359.28;5066511;28;20029;-79
2022/06/29 02:22:30;;;;;;;18.77;8.95;;;;;;;14.23;84.59;101355.56;5068013;28;20043;-79
2022/06/29 02:24:56;;;;;;;19.60;8.98;;;;;;;14.22;84.32;101360.13;5067989;28;20093;-79
2022/06/29 02:27:21;;;;;;;20.13;8.60;;;;;;;14.21;84.07;101352.16;5065984;28;20028;-79
2022/06/29 02:29:47;;;;;;;18.52;8.25;;;;;;;14.22;84.07;101356.56;5062753;28;20610;-79
2022/06/29 02:34:56;;;;;;;18.00;8.85;;;;;;;14.25;84.49;101351.75;5072129;28;20043;-79
2022/06/29 02:37:21;;;;;;;19.50;9.07;;;;;;;14.25;84.90;101357.16;5063170;28;20036;-79
2022/06/29 02:39:46;;;;;;;17.25;8.32;;;;;;;14.22;85.86;101343.91;5075691;28;20463;-79
2022/06/29 02:42:13;;;;;;;16.77;8.30;;;;;;;14.21;85.26;101342.19;5079118;28;20479;-79
2022/06/29 02:44:39;;;;;;;18.55;8.23;;;;;;;14.21;85.33;101353.00;5068994;28;20357;-79
2022/06/29 02:47:05;;;;;;;20.23;9.77;;;;;;;14.21;85.03;101341.31;5076194;28;20058;-79
2022/06/29 02:49:31;;;;;;;17.70;8.63;;;;;;;14.23;85.27;101339.34;5064429;28;20052;-79
2022/06/29 02:51:56;;;;;;;19.75;8.63;;;;;;;14.25;85.77;101338.25;5063657;28;20159;-79
2022/06/29 02:54:22;;;;;;;19.92;9.38;;;;;;;14.26;84.37;101339.97;5066278;28;20075;-79
2022/06/29 02:56:47;;;;;;;19.65;10.07;;;;;;;14.29;84.40;101334.31;5065259;28;20110;-79
2022/06/29 02:59:12;;;;;;;19.20;9.60;;;;;;;14.29;84.75;101328.91;5069132;28;20031;-79
2022/06/29 03:01:38;;;;;;;20.13;9.68;;;;;;;14.32;84.75;101328.66;5068132;28;20040;-79
2022/06/29 03:04:03;;;;;;;20.75;9.75;;;;;;;14.32;84.95;101330.50;5064754;28;20040;-79
2022/06/29 03:06:29;;;;;;;19.25;9.77;;;;;;;14.33;84.63;101329.50;5067979;28;20055;-79
2022/06/29 03:08:54;;;;;;;21.55;10.20;;;;;;;14.32;84.47;101328.66;5067121;28;20071;-79
2022/06/29 03:11:19;;;;;;;18.52;9.38;;;;;;;14.34;84.60;101331.22;5074951;28;20056;-79
2022/06/29 03:13:45;;;;;;;21.90;10.07;;;;;;;14.32;84.94;101312.44;5075747;28;20069;-79
2022/06/29 03:16:10;;;;;;;20.60;10.70;;;;;;;14.33;84.05;101319.56;5065575;28;20024;-79
2022/06/29 03:18:35;;;;;;;19.90;9.18;;;;;;;14.36;85.02;101315.72;5066453;28;20040;-79
2022/06/29 03:21:00;;;;;;;22.48;10.95;;;;;;;14.38;84.95;101319.19;5078956;28;20055;-79
2022/06/29 03:23:26;;;;;;;20.55;9.65;;;;;;;14.41;84.85;101315.38;5073741;28;20043;-79
2022/06/29 03:25:51;;;;;;;21.60;10.23;;;;;;;14.41;83.97;101312.66;5066276;28;20027;-79
2022/06/29 03:28:17;;;;;;;21.35;9.80;;;;;;;14.42;85.15;101311.66;5067484;28;20024;-79
2022/06/29 03:30:42;;;;;;;19.83;10.10;;;;;;;14.42;84.11;101306.25;5068408;28;20040;-79
2022/06/29 03:33:07;;;;;;;22.83;10.68;;;;;;;14.42;83.63;101306.25;5065094;28;20039;-79
2022/06/29 03:35:33;;;;;;;22.10;10.55;;;;;;;14.43;84.75;101310.69;5070054;28;20032;-79
2022/06/29 03:37:58;;;;;;;22.08;10.00;;;;;;;14.39;85.25;101298.41;5070490;28;20496;-79
2022/06/29 03:40:24;;;;;;;20.08;10.05;;;;;;;14.37;84.73;101295.81;5072058;28;20209;-79
2022/06/29 03:42:49;;;;;;;18.98;9.15;;;;;;;14.35;85.30;101292.41;5069448;28;20036;-79
2022/06/29 03:45:14;;;;;;;20.27;9.20;;;;;;;14.34;85.22;101296.09;5070225;28;20486;-79
2022/06/29 03:47:40;;;;;;;17.85;9.65;;;;;;;14.33;84.37;101300.63;5081949;28;20023;-79
2022/06/29 03:50:09;;;;;;;17.70;8.68;;;;;;;14.32;85.05;101295.34;5074783;28;20024;-79
2022/06/29 03:52:35;;;;;;;20.50;10.23;;;;;;;14.32;85.47;101290.81;5090523;28;20027;-79
2022/06/29 03:55:00;;;;;;;18.75;9.48;;;;;;;14.31;84.33;101294.47;5076901;28;20090;-79
2022/06/29 03:57:25;;;;;;;20.88;10.45;;;;;;;14.32;85.20;101296.22;5084824;28;20028;-79
2022/06/29 03:59:51;;;;;;;18.42;8.98;;;;;;;14.33;85.71;101286.25;5068746;28;20028;-79
2022/06/29 04:02:16;;;;;;;20.50;9.77;;;;;;;14.34;85.74;101285.25;5080669;28;20023;-79
2022/06/29 04:04:41;;;;;;;20.48;10.82;;;;;;;14.32;85.02;101285.38;5072090;28;20464;-79
2022/06/29 04:07:07;;;;;;;23.10;9.30;;;;;;;14.34;84.91;101283.41;5069629;28;20794;-79
2022/06/29 04:09:32;;;;;;;19.30;9.93;;;;;;;14.34;85.45;101277.16;5071254;28;20053;-79
2022/06/29 04:11:59;;;;;;;19.55;9.40;;;;;;;14.34;85.55;101277.16;5068439;28;20052;-79
2022/06/29 04:14:28;;;;;;;18.73;9.52;;;;;;;14.32;85.77;101277.28;5063224;28;20035;-79
2022/06/29 04:16:56;;;;;;;21.55;10.90;;;;;;;14.28;86.36;101283.06;5069308;28;20623;-79
2022/06/29 04:19:22;;;;;;;19.20;10.02;;;;;;;14.30;86.00;101287.34;5069698;28;20025;-79
2022/06/29 04:21:48;;;;;;;20.70;10.05;;;;;;;14.29;86.13;101291.06;5070312;28;20032;-79
2022/06/29 04:24:15;;;;;;;21.73;11.07;;;;;;;14.30;85.67;101281.94;5077952;28;20094;-79
2022/06/29 04:26:40;;;;;;;18.83;10.32;;;;;;;14.30;87.21;101278.38;5083172;28;20122;-79
2022/06/29 04:29:06;;;;;;;20.90;10.32;;;;;;;14.30;86.03;101279.22;5085453;28;20497;-79
2022/06/29 04:31:32;;;;;;;21.55;10.80;;;;;;;14.32;86.79;101282.69;5068454;28;20111;-79
2022/06/29 04:33:58;;;;;;;20.88;10.32;;;;;;;14.35;86.69;101276.19;5083546;28;20033;-79
2022/06/29 04:36:23;;;;;;;20.45;11.13;;;;;;;14.38;88.09;101277.75;5068071;28;20090;-79
2022/06/29 04:38:48;;;;;;;19.95;10.18;;;;;;;14.40;87.89;101270.38;5082770;28;20055;-79
2022/06/29 04:41:15;;;;;;;22.65;11.43;;;;;;;14.41;88.13;101277.50;5089819;28;20024;-79
2022/06/29 04:43:41;;;;;;;19.65;10.35;;;;;;;14.42;88.39;101285.50;5084379;28;20479;-79
2022/06/29 04:46:22;;;;;;;21.33;11.30;;;;;;;14.45;88.63;101277.13;5068490;28;20032;-79
2022/06/29 04:48:56;;;;;;;21.85;11.32;;;;;;;14.49;88.26;101281.31;5064377;28;20028;-79
2022/06/29 04:51:22;;;;;;;23.52;11.05;;;;;;;14.52;87.92;101272.06;5082695;28;20028;-79
2022/06/29 04:53:48;;;;;;;21.33;11.02;;;;;;;14.56;88.05;101278.94;5089423;28;20036;-79
2022/06/29 04:56:16;;;;;;;24.38;11.18;;;;;;;14.62;85.27;101273.03;5066565;28;20036;-79
2022/06/29 04:58:43;;;;;;;21.48;10.95;;;;;;;14.73;86.67;101271.28;5065692;28;20506;-79
2022/06/29 05:01:09;;;;;;;20.27;11.55;;;;;;;14.80;87.85;101270.66;5070411;28;20104;-79
2022/06/29 05:03:34;;;;;;;19.90;10.55;;;;;;;14.89;87.15;101271.72;5068650;28;20465;-79
2022/06/29 05:06:01;;;;;;;21.35;11.70;;;;;;;14.98;83.76;101279.03;5069431;28;20028;-79
2022/06/29 05:08:26;;;;;;;20.35;11.38;;;;;;;15.08;82.89;101280.94;5066106;28;20548;-79
2022/06/29 05:10:51;;;;;;;25.25;10.90;;;;;;;15.16;86.00;101267.63;5065310;28;20021;-80
2022/06/29 05:13:16;;;;;;;18.30;7.50;;;;;;;15.23;82.15;101274.22;5080760;28;20036;-80
2022/06/29 05:15:42;;;;;;;19.50;8.75;;;;;;;15.30;83.23;101270.00;5066411;28;20028;-80
2022/06/29 05:18:08;;;;;;;23.02;10.15;;;;;;;15.37;85.68;101262.19;5073563;28;20024;-80
2022/06/29 05:20:34;;;;;;;19.60;9.57;;;;;;;15.44;85.09;101259.81;5076515;28;20020;-80
2022/06/29 05:22:59;;;;;;;23.42;11.55;;;;;;;15.47;84.41;101262.25;5077615;28;20016;-80
2022/06/29 05:25:24;;;;;;;23.02;10.38;;;;;;;15.52;84.83;101263.56;5080485;28;20456;-80
2022/06/29 05:27:50;;;;;;;19.88;8.82;;;;;;;15.59;82.16;101263.03;5070407;28;20028;-80
2022/06/29 05:30:16;;;;;;;21.83;10.25;;;;;;;15.65;85.37;101263.34;5069545;28;20383;-80
2022/06/29 05:32:42;;;;;;;21.25;10.57;;;;;;;15.70;82.90;101258.38;5067895;28;20024;-80
2022/06/29 05:35:08;;;;;;;18.60;7.88;;;;;;;15.73;79.93;101254.53;5065405;28;20059;-80
2022/06/29 05:37:34;;;;;;;21.65;9.00;;;;;;;15.81;82.52;101256.59;5068135;28;20067;-80
2022/06/29 05:39:59;;;;;;;21.30;10.10;;;;;;;15.90;81.73;101258.47;5069772;28;20506;-80
2022/06/29 05:42:25;;;;;;;19.55;9.00;;;;;;;15.91;80.73;101257.47;5071859;28;20494;-80
2022/06/29 05:44:50;;;;;;;20.60;8.30;;;;;;;15.94;78.17;101259.91;5071970;28;20021;-80
2022/06/29 05:47:16;;;;;;;20.17;9.13;;;;;;;16.03;80.39;101255.50;5068058;28;20020;-81
2022/06/29 05:49:41;;;;;;;20.25;8.80;;;;;;;16.07;84.06;101251.53;5068815;28;20055;-81
2022/06/29 05:52:07;;;;;;;24.23;9.48;;;;;;;16.12;81.46;101253.81;5065470;28;20016;-81
2022/06/29 05:54:33;;;;;;;19.33;8.57;;;;;;;16.14;79.64;101252.69;5066824;28;20066;-81
2022/06/29 05:56:58;;;;;;;20.92;8.48;;;;;;;16.18;79.77;101253.25;5071230;28;20035;-81
2022/06/29 05:59:24;;;;;;;19.00;8.13;;;;;;;16.20;79.16;101248.56;5071438;28;20046;-81
2022/06/29 06:01:49;;;;;;;19.58;7.78;;;;;;;16.26;78.51;101253.44;5071777;28;20016;-81
2022/06/29 06:04:14;;;;;;;16.95;7.57;;;;;;;16.32;76.49;101247.44;5066087;28;20099;-81
2022/06/29 06:06:40;;;;;;;15.40;5.57;;;;;;;16.34;75.64;101256.31;5075644;28;20048;-81
2022/06/29 06:09:06;;;;;;;20.50;7.78;;;;;;;16.52;75.33;101255.63;5076278;28;20063;-81
2022/06/29 06:11:31;;;;;;;14.95;5.80;;;;;;;16.55;77.42;101256.19;5074013;28;20494;-77
2022/06/29 06:13:56;;;;;;;13.95;4.50;;;;;;;16.53;74.42;101254.59;5079735;28;20116;-78
2022/06/29 06:16:22;;;;;;;12.38;5.13;;;;;;;16.55;75.05;101258.06;5065785;28;20029;-78
2022/06/29 06:18:48;;;;;;;14.68;5.78;;;;;;;16.65;75.42;101253.47;5066789;28;20025;-78
2022/06/29 06:21:13;;;;;;;16.75;6.18;;;;;;;16.73;76.45;101258.19;5065155;28;20028;-78
2022/06/29 06:23:39;;;;;;;14.55;5.15;;;;;;;16.76;72.82;101260.63;5064789;28;20143;-78
2022/06/29 06:26:04;;;;;;;12.68;4.80;;;;;;;16.86;73.09;101252.47;5064295;28;20115;-78
2022/06/29 06:28:29;;;;;;;14.35;4.40;;;;;;;16.96;72.08;101247.94;5072286;28;20023;-79
2022/06/29 06:30:55;;;;;;;11.32;4.38;;;;;;;17.01;71.67;101251.06;5059854;28;20028;-77
2022/06/29 06:33:22;;;;;;;12.52;4.70;;;;;;;17.10;71.55;101252.03;5064760;28;20090;-77
2022/06/29 06:35:47;;;;;;;14.05;4.18;;;;;;;17.10;71.62;101250.19;5061170;28;20024;-77
2022/06/29 06:38:14;;;;;;;10.00;3.70;;;;;;;17.18;71.07;101256.78;5074729;28;20036;-77
2022/06/29 06:43:23;;;;;;;11.68;4.03;;;;;;;17.20;70.80;101260.19;5065608;28;20067;-77
2022/06/29 06:45:48;;;;;;;11.13;4.25;;;;;;;17.29;73.42;101254.75;5072108;28;20455;-77
2022/06/29 06:48:13;;;;;;;13.20;3.95;;;;;;;17.34;72.26;101251.56;5067519;28;20024;-77
2022/06/29 06:50:39;;;;;;;11.85;4.47;;;;;;;17.49;71.52;101248.38;5076280;28;20034;-77
2022/06/29 06:53:04;;;;;;;8.05;3.35;;;;;;;17.52;70.01;101250.81;5072260;28;20445;-77
2022/06/29 06:55:30;;;;;;;10.20;3.55;;;;;;;17.51;70.15;101254.53;5073878;28;20023;-77
2022/06/29 06:57:55;;;;;;;12.65;4.05;;;;;;;17.61;74.03;101252.63;5066080;28;20115;-77
2022/06/29 07:00:20;;;;;;;16.63;4.57;;;;;;;17.64;70.89;101255.03;5079708;28;20024;-77
2022/06/29 07:02:46;;;;;;;12.45;4.28;;;;;;;17.62;70.21;101254.34;5066597;28;20039;-77
2022/06/29 07:05:11;;;;;;;14.73;4.40;;;;;;;17.64;70.50;101247.75;5067089;28;20449;-77
2022/06/29 07:07:36;;;;;;;8.57;3.67;;;;;;;17.66;70.27;101253.06;5068961;28;20162;-77
2022/06/29 07:10:03;;;;;;;6.90;3.13;;;;;;;17.69;70.56;101255.47;5071407;28;20138;-77
2022/06/29 07:12:28;;;;;;;13.65;3.97;;;;;;;17.74;70.58;101252.28;5068916;28;20043;-77
2022/06/29 07:14:53;;;;;;;10.45;3.60;;;;;;;17.79;70.38;101248.13;5066891;28;20037;-76
2022/06/29 07:17:18;;;;;;;11.10;3.58;;;;;;;17.91;69.99;101247.97;5080315;28;20073;-76
2022/06/29 07:19:44;;;;;;;10.88;3.55;;;;;;;17.96;70.10;101245.63;5071375;28;20115;-76
2022/06/29 07:22:09;;;;;;;12.45;4.10;;;;;;;18.03;69.74;101252.19;5086970;28;20440;-77
2022/06/29 07:24:34;;;;;;;9.63;3.55;;;;;;;18.13;69.35;101246.69;5068826;28;20081;-76
2022/06/29 07:27:00;;;;;;;13.57;4.00;;;;;;;18.37;66.30;101251.53;5071626;28;20047;-79
2022/06/29 07:29:25;;;;;;;14.10;4.55;;;;;;;18.57;66.85;101246.81;5076756;28;20032;-80
2022/06/29 07:31:50;;;;;;;9.73;3.20;;;;;;;18.60;68.31;101253.81;5075954;28;20039;-80
2022/06/29 07:34:16;;;;;;;9.70;3.50;;;;;;;18.58;67.98;101244.94;5079052;28;20039;-78
2022/06/29 07:36:42;;;;;;;12.52;4.50;;;;;;;18.72;66.32;101251.72;5070275;28;20028;-79
2022/06/29 07:39:07;;;;;;;9.38;3.30;;;;;;;18.82;65.10;101245.16;5073425;28;20471;-79
2022/06/29 07:41:32;;;;;;;11.05;3.50;;;;;;;18.86;66.49;101243.88;5084820;28;20059;-78
2022/06/29 07:43:58;;;;;;;9.48;3.42;;;;;;;19.01;64.02;101244.16;5077519;28;20475;-78
2022/06/29 07:46:23;;;;;;;8.82;3.25;;;;;;;18.98;67.36;101243.66;5071366;28;20448;-79
2022/06/29 07:48:52;;;;;;;11.07;4.03;;;;;;;19.11;64.70;101235.06;5074562;28;20043;-80
2022/06/29 07:51:17;;;;;;;7.50;3.00;;;;;;;19.04;67.73;101230.22;5077400;28;20409;-80
2022/06/29 07:53:42;;;;;;;9.15;3.47;;;;;;;19.02;66.11;101226.81;5069558;28;20028;-80
2022/06/29 07:56:08;;;;;;;10.70;3.50;;;;;;;19.20;64.92;101234.94;5080664;28;20352;-80
2022/06/29 07:58:33;;;;;;;7.20;2.92;;;;;;;19.25;64.14;101225.44;5085575;28;20032;-79
2022/06/29 08:00:58;;;;;;;10.05;3.40;;;;;;;19.34;65.71;101225.34;5066727;28;20032;-80
2022/06/29 08:03:24;;;;;;;8.60;2.80;;;;;;;19.28;67.74;101225.09;5064840;28;20478;-80
2022/06/29 08:05:50;;;;;;;8.75;3.10;;;;;;;19.21;68.93;101230.38;5070479;28;20028;-79
2022/06/29 08:08:16;;;;;;;8.02;3.15;;;;;;;19.29;65.41;101232.28;5064396;28;20051;-79
2022/06/29 08:10:42;;;;;;;7.78;3.25;;;;;;;19.30;64.70;101234.00;5069022;28;20056;-78
2022/06/29 08:13:07;;;;;;;8.15;3.13;;;;;;;19.31;68.29;101230.25;5066803;28;20032;-78
2022/06/29 08:15:32;;;;;;;7.80;2.95;;;;;;;19.38;67.72;101223.13;5065639;28;20028;-78
2022/06/29 08:17:58;;;;;;;10.50;3.47;;;;;;;19.42;64.75;101229.13;5060848;28;20174;-79
2022/06/29 08:20:23;;;;;;;7.35;3.03;;;;;;;19.41;69.07;101221.97;5072849;28;20035;-79
2022/06/29 08:22:49;;;;;;;5.22;2.70;;;;;;;19.49;63.09;101228.31;5080909;28;20023;-79
2022/06/29 08:25:14;;;;;;;12.80;3.40;;;;;;;19.69;62.98;101228.94;5065448;28;20044;-79
2022/06/29 08:27:40;;;;;;;8.00;3.17;;;;;;;19.78;64.39;101220.78;5084943;28;20029;-79
2022/06/29 08:30:07;;;;;;;7.40;3.10;;;;;;;19.90;63.79;101220.34;5065869;28;20032;-79
2022/06/29 08:32:32;;;;;;;5.15;2.72;;;;;;;19.84;66.91;101223.75;5069703;28;20024;-79
2022/06/29 08:35:00;;;;;;;7.35;2.47;;;;;;;19.95;60.38;101221.72;5082234;28;20039;-79
2022/06/29 08:37:26;;;;;;;8.93;2.70;;;;;;;19.88;65.69;101224.25;5090974;28;20031;-79
2022/06/29 08:39:52;;;;;;;7.50;2.78;;;;;;;19.86;67.15;101218.97;5074196;28;20406;-79
2022/06/29 08:42:21;;;;;;;8.48;2.90;;;;;;;19.95;63.00;101216.28;5065311;28;20028;-79
2022/06/29 08:44:47;;;;;;;9.52;2.85;;;;;;;20.21;61.79;101219.75;5072853;28;20475;-79
2022/06/29 08:47:13;;;;;;;7.90;2.88;;;;;;;20.25;59.90;101212.09;5089415;28;20044;-79
2022/06/29 08:49:39;;;;;;;6.75;3.17;;;;;;;20.29;60.24;101223.53;5076409;28;20363;-79
2022/06/29 08:52:06;;;;;;;6.93;3.13;;;;;;;20.42;56.89;101215.69;5084149;28;20483;-79
2022/06/29 08:54:35;;;;;;;8.23;2.97;;;;;;;20.54;58.27;101221.69;5063019;28;20388;-79
2022/06/29 08:57:03;;;;;;;7.78;2.80;;;;;;;20.71;57.49;101220.72;5066014;28;20437;-79
2022/06/29 08:59:29;;;;;;;7.25;3.00;;;;;;;20.76;56.83;101221.06;5067073;28;20123;-79
2022/06/29 09:01:54;;;;;;;8.88;3.08;;;;;;;20.84;57.24;101212.00;5069702;28;20040;-79
2022/06/29 09:04:20;;;;;;;7.78;3.13;;;;;;;21.00;56.47;101215.78;5070495;28;20099;-80
2022/06/29 09:06:46;;;;;;;6.88;3.13;;;;;;;21.02;57.17;101208.25;5070455;28;20074;-79
2022/06/29 09:09:12;;;;;;;12.65;3.60;;;;;;;21.06;56.61;101210.44;5068204;28;20082;-79
2022/06/29 09:11:42;;;;;;;10.63;3.47;;;;;;;21.13;55.69;101214.19;5068082;28;20028;-79
2022/06/29 09:14:16;;;;;;;15.02;4.30;;;;;;;21.13;56.22;101210.63;5067487;28;20632;-80
2022/06/29 09:17:02;;;;;;;7.80;2.88;;;;;;;21.12;59.20;101212.47;5078390;28;20032;-79
2022/06/29 09:19:29;;;;;;;4.82;2.60;;;;;;;21.10;57.19;101210.97;5078065;28;20024;-79
2022/06/29 09:21:57;;;;;;;9.60;2.97;;;;;;;21.08;59.01;101210.28;5088022;28;20043;-79
2022/06/29 09:24:28;;;;;;;6.93;2.90;;;;;;;21.19;56.88;101214.53;5088540;28;20213;-79
2022/06/29 09:26:57;;;;;;;9.75;2.72;;;;;;;21.25;58.10;101206.50;5069967;28;20298;-79
2022/06/29 09:29:28;;;;;;;7.97;2.95;;;;;;;21.27;54.90;101212.66;5062617;28;20416;-80
2022/06/29 09:32:06;;;;;;;5.75;2.67;;;;;;;21.34;55.46;101211.94;5065586;28;20067;-79
2022/06/29 09:34:32;;;;;;;9.63;3.00;;;;;;;21.39;54.70;101210.41;5065973;28;20119;-79
2022/06/29 09:37:01;;;;;;;3.70;2.55;;;;;;;21.57;53.33;101202.00;5067602;28;20032;-79
2022/06/29 09:39:34;;;;;;;8.30;2.47;;;;;;;21.56;55.63;101203.00;5069929;28;20036;-79
2022/06/29 09:41:59;;;;;;;3.90;2.63;;;;;;;21.69;53.66;101204.34;5068681;28;20506;-79
2022/06/29 09:44:24;;;;;;;6.22;2.63;;;;;;;21.68;54.91;101210.84;5066937;28;20024;-79
2022/06/29 09:46:54;;;;;;;12.55;2.95;;;;;;;21.67;55.96;101207.25;5061680;28;20029;-77
2022/06/29 09:49:25;;;;;;;4.55;2.50;;;;;;;21.85;50.92;101208.91;5068277;28;20024;-79
2022/06/29 09:51:54;;;;;;;5.40;2.67;;;;;;;22.04;50.84;101207.59;5065343;28;20020;-79
2022/06/29 09:54:23;;;;;;;7.10;2.53;;;;;;;22.14;51.92;101197.28;5061835;28;20130;-79
2022/06/29 09:56:50;;;;;;;6.60;2.70;;;;;;;22.12;53.96;101199.34;5064242;28;20396;-79
2022/06/29 10:02:37;;;;;;;4.40;2.55;;;;;;;22.08;52.86;101203.47;5063218;28;20514;-79
2022/06/29 10:05:22;;;;;;;8.38;2.72;;;;;;;21.97;57.46;101205.56;5068429;28;20024;-80
2022/06/29 10:07:55;;;;;;;7.00;2.88;;;;;;;22.04;54.27;101196.66;5064060;28;20133;-79
2022/06/29 10:10:21;;;;;;;12.27;3.10;;;;;;;22.18;54.49;101193.13;5082205;28;20059;-80
2022/06/29 10:15:43;;;;;;;5.82;2.63;;;;;;;22.13;56.21;101201.88;5067110;28;20089;-80
2022/06/29 10:18:23;;;;;;;4.82;2.80;;;;;;;22.12;56.98;101192.00;5067802;28;20353;-79
2022/06/29 10:20:48;;;;;;;;;;;;;;;22.17;54.48;101188.72;5066495;28;20051;-79
2022/06/29 10:23:49;;;;;;;6.70;2.90;;;;;;;22.50;55.41;101193.97;5065913;28;20044;-78
2022/06/29 10:26:28;;;;;;;8.93;3.30;;;;;;;22.67;53.96;101190.06;5067727;28;20075;-79
2022/06/29 10:28:54;;;;;;;7.30;2.92;;;;;;;22.75;50.08;101185.56;5073337;28;20436;-79
2022/06/29 10:31:56;;;;;;;9.15;3.20;;;;;;;22.69;53.36;101184.41;5085997;28;20024;-79
2022/06/29 10:34:28;;;;;;;5.75;2.78;;;;;;;22.66;49.92;101180.13;5062399;28;20025;-78
2022/06/29 10:37:02;;;;;;;8.48;3.15;;;;;;;22.64;53.54;101182.22;5066651;28;20032;-79
2022/06/29 10:39:47;;;;;;;8.27;2.80;;;;;;;22.65;51.33;101178.47;5067797;28;20070;-80
2022/06/29 10:45:14;;;;;;;5.25;2.60;;;;;;;22.67;50.37;101176.38;5072462;28;20397;-81
2022/06/29 10:47:55;;;;;;;4.63;2.60;;;;;;;22.76;49.30;101168.94;5071277;28;20029;-79
2022/06/29 10:50:31;;;;;;;5.28;2.70;;;;;;;22.74;52.92;101164.66;5077695;28;20481;-80
2022/06/29 10:53:00;;;;;;;7.07;2.88;;;;;;;22.73;50.35;101163.81;5071452;28;20622;-79
2022/06/29 10:55:30;;;;;;;4.95;2.75;;;;;;;22.77;50.79;101161.56;5071532;28;20105;-79
2022/06/29 10:57:56;;;;;;;5.45;2.47;;;;;;;22.78;51.31;101155.03;5075773;28;20055;-79
2022/06/29 11:00:24;;;;;;;10.77;3.03;;;;;;;22.99;49.19;101144.22;5092802;28;20475;-78
2022/06/29 11:02:50;;;;;;;7.97;2.90;;;;;;;23.03;50.91;101153.78;5070581;28;20024;-80
2022/06/29 11:05:15;;;;;;;4.88;2.80;;;;;;;23.05;49.58;101148.09;5085407;28;20027;-80
2022/06/29 11:13:04;;;;;;;9.88;3.17;;;;;;;23.17;49.59;101154.00;5084049;28;20067;-80
2022/06/29 11:15:47;;;;;;;6.95;2.95;;;;;;;23.20;47.61;101154.47;5070545;28;20064;-80
2022/06/29 11:18:16;;;;;;;14.07;3.58;;;;;;;23.26;48.89;101158.34;5089495;28;20024;-80
2022/06/29 11:20:44;;;;;;;7.05;3.00;;;;;;;23.35;47.94;101154.50;5091858;28;20472;-80
2022/06/29 11:23:14;;;;;;;7.53;2.90;;;;;;;23.45;50.69;101150.59;5076398;28;20059;-80
2022/06/29 11:25:43;;;;;;;10.05;2.97;;;;;;;23.52;50.16;101154.28;5068591;28;20383;-80
2022/06/29 11:28:08;;;;;;;7.00;3.13;;;;;;;23.50;50.25;101149.00;5079242;28;20032;-80
2022/06/29 11:30:34;;;;;;;4.70;2.70;;;;;;;23.45;49.27;101145.09;5088524;28;20029;-80
2022/06/29 11:33:10;;;;;;;7.72;2.88;;;;;;;23.39;53.59;101144.81;5072133;28;20464;-80
2022/06/29 11:35:36;;;;;;;7.18;2.75;;;;;;;23.32;52.80;101141.13;5072596;28;20024;-80
2022/06/29 11:38:01;;;;;;;8.77;3.40;;;;;;;23.37;54.32;101138.69;5072491;28;20633;-80